LFBY 210400Z AUTO 36002KT 6000 // ////// 01/00 Q1032

ElémentsDécodage
LFBY Station météo située sur l'aérodrome de DAX Seyresse
210400Z émis le 21 du mois à 04h00 UTC
AUTO Bulletin édité par un automate
36002KT vent du 360°, 02 noeuds
6000 visibilité horizontale de 6000 mètres
// élement non décodé
////// nébulosité (type et hauteur) non disponible
 type de nuage non observable
01/00 température 01°C, point de rosée 00°C
 soit une humidité relative de 93%
Q1032 la pression au niveau de la mer (QNH) est de 1032 hPa